Boston, Massachusetts
Current Conditions -  °F | °C
As of 10:54 AM on Sunday 25 Jan 2015 (Local Time) from KBOS Reporting Station
Scattered Clouds Scattered Clouds  
Wind Chill: 29°   Ceiling: Unl
Heat Index: 38°   Visibility: 10mi
Dew Point: 24°   Wind: 17mph
Humidity: 57%   Direction: 260°W
Pressure: 29.59"   Gusts: 28mph
Location:  42.36°N, 71.06°W
Report Text: KBOS 251554Z 26015G24KT 10SM FEW045 SCT070 03/M04 A2959 RMK AO2 SLP020 T00331044
Loading
Personal Weather Stations






























Interactive Weather Map New forecast layout! Learn more

10-Day Weather Forecast

Advertisements
Track Severe Weather on mobile